sensor_id;sensor_type;location;lat;lon;timestamp;temperature;humidity
42905;DHT22;28550;51.228;4.528;2022-09-13T00:01:48;18.50;66.00
42905;DHT22;28550;51.228;4.528;2022-09-13T00:04:13;18.50;65.50
42905;DHT22;28550;51.228;4.528;2022-09-13T00:06:39;18.50;66.30
42905;DHT22;28550;51.228;4.528;2022-09-13T00:09:04;18.50;67.10
42905;DHT22;28550;51.228;4.528;2022-09-13T00:11:31;18.50;68.40
42905;DHT22;28550;51.228;4.528;2022-09-13T00:13:57;18.50;71.60
42905;DHT22;28550;51.228;4.528;2022-09-13T00:16:23;18.50;70.90
42905;DHT22;28550;51.228;4.528;2022-09-13T00:19:08;18.60;70.10
42905;DHT22;28550;51.228;4.528;2022-09-13T00:21:33;18.60;69.30
42905;DHT22;28550;51.228;4.528;2022-09-13T00:23:59;18.70;66.50
42905;DHT22;28550;51.228;4.528;2022-09-13T00:26:26;18.70;65.30
42905;DHT22;28550;51.228;4.528;2022-09-13T00:28:55;18.70;68.70
42905;DHT22;28550;51.228;4.528;2022-09-13T00:31:21;18.70;69.90
42905;DHT22;28550;51.228;4.528;2022-09-13T00:33:49;18.70;69.80
42905;DHT22;28550;51.228;4.528;2022-09-13T00:36:15;18.80;68.80
42905;DHT22;28550;51.228;4.528;2022-09-13T00:38:41;18.80;66.70
42905;DHT22;28550;51.228;4.528;2022-09-13T00:41:09;18.80;66.60
42905;DHT22;28550;51.228;4.528;2022-09-13T00:43:40;18.70;65.90
42905;DHT22;28550;51.228;4.528;2022-09-13T00:46:06;18.80;66.30
42905;DHT22;28550;51.228;4.528;2022-09-13T00:50:57;18.70;60.00
42905;DHT22;28550;51.228;4.528;2022-09-13T00:53:32;18.70;56.50
42905;DHT22;28550;51.228;4.528;2022-09-13T00:56:00;18.80;58.80
42905;DHT22;28550;51.228;4.528;2022-09-13T00:58:32;18.90;54.40
42905;DHT22;28550;51.228;4.528;2022-09-13T01:00:58;18.90;52.40
42905;DHT22;28550;51.228;4.528;2022-09-13T01:03:25;18.90;52.50
42905;DHT22;28550;51.228;4.528;2022-09-13T01:05:53;18.90;52.70
42905;DHT22;28550;51.228;4.528;2022-09-13T01:08:21;18.90;54.20
42905;DHT22;28550;51.228;4.528;2022-09-13T01:10:47;18.90;50.50
42905;DHT22;28550;51.228;4.528;2022-09-13T01:18:54;18.90;53.20
42905;DHT22;28550;51.228;4.528;2022-09-13T01:21:25;19.00;53.50
42905;DHT22;28550;51.228;4.528;2022-09-13T01:29:24;18.80;56.50
42905;DHT22;28550;51.228;4.528;2022-09-13T01:34:43;18.90;50.70
42905;DHT22;28550;51.228;4.528;2022-09-13T01:39:55;18.80;51.10
42905;DHT22;28550;51.228;4.528;2022-09-13T01:42:27;18.90;51.20
42905;DHT22;28550;51.228;4.528;2022-09-13T01:45:02;18.80;48.90
42905;DHT22;28550;51.228;4.528;2022-09-13T01:47:32;18.90;48.70
42905;DHT22;28550;51.228;4.528;2022-09-13T01:50:14;18.90;47.40
42905;DHT22;28550;51.228;4.528;2022-09-13T01:57:43;18.80;54.10
42905;DHT22;28550;51.228;4.528;2022-09-13T02:00:24;18.70;56.20
42905;DHT22;28550;51.228;4.528;2022-09-13T02:02:52;18.80;52.50
42905;DHT22;28550;51.228;4.528;2022-09-13T02:05:39;18.90;51.20
42905;DHT22;28550;51.228;4.528;2022-09-13T02:08:08;18.90;50.10
42905;DHT22;28550;51.228;4.528;2022-09-13T02:10:37;19.00;48.30
42905;DHT22;28550;51.228;4.528;2022-09-13T02:13:05;18.90;47.50
42905;DHT22;28550;51.228;4.528;2022-09-13T02:15:40;18.90;46.20
42905;DHT22;28550;51.228;4.528;2022-09-13T02:18:09;18.90;47.80
42905;DHT22;28550;51.228;4.528;2022-09-13T02:25:56;18.90;51.60
42905;DHT22;28550;51.228;4.528;2022-09-13T02:28:29;19.00;53.00
42905;DHT22;28550;51.228;4.528;2022-09-13T02:30:57;19.00;54.00
42905;DHT22;28550;51.228;4.528;2022-09-13T02:36:05;19.00;54.80
42905;DHT22;28550;51.228;4.528;2022-09-13T02:38:36;19.00;55.00
42905;DHT22;28550;51.228;4.528;2022-09-13T02:49:33;18.80;62.40
42905;DHT22;28550;51.228;4.528;2022-09-13T02:54:47;18.80;60.70
42905;DHT22;28550;51.228;4.528;2022-09-13T02:57:21;18.80;65.30
42905;DHT22;28550;51.228;4.528;2022-09-13T02:59:51;18.80;62.20
42905;DHT22;28550;51.228;4.528;2022-09-13T03:02:18;18.80;58.90
42905;DHT22;28550;51.228;4.528;2022-09-13T03:04:45;18.80;57.30
42905;DHT22;28550;51.228;4.528;2022-09-13T03:07:11;18.70;53.50
42905;DHT22;28550;51.228;4.528;2022-09-13T03:09:42;18.70;56.80
42905;DHT22;28550;51.228;4.528;2022-09-13T03:14:45;18.70;56.80
42905;DHT22;28550;51.228;4.528;2022-09-13T03:17:14;18.70;54.00
42905;DHT22;28550;51.228;4.528;2022-09-13T03:22:39;18.70;53.80
42905;DHT22;28550;51.228;4.528;2022-09-13T03:27:49;18.70;54.20
42905;DHT22;28550;51.228;4.528;2022-09-13T03:30:17;18.70;52.70
42905;DHT22;28550;51.228;4.528;2022-09-13T03:43:34;18.60;56.90
42905;DHT22;28550;51.228;4.528;2022-09-13T03:45:45;18.60;58.10
42905;DHT22;28550;51.228;4.528;2022-09-13T03:48:12;18.60;59.60
42905;DHT22;28550;51.228;4.528;2022-09-13T03:50:38;18.60;61.30
42905;DHT22;28550;51.228;4.528;2022-09-13T03:53:09;18.60;61.30
42905;DHT22;28550;51.228;4.528;2022-09-13T03:55:37;18.60;61.80
42905;DHT22;28550;51.228;4.528;2022-09-13T03:58:03;18.50;62.00
42905;DHT22;28550;51.228;4.528;2022-09-13T04:00:29;18.60;58.20
42905;DHT22;28550;51.228;4.528;2022-09-13T04:02:54;18.60;58.20
42905;DHT22;28550;51.228;4.528;2022-09-13T04:05:20;18.70;55.50
42905;DHT22;28550;51.228;4.528;2022-09-13T04:07:46;18.70;56.60
42905;DHT22;28550;51.228;4.528;2022-09-13T04:10:11;18.70;55.00
42905;DHT22;28550;51.228;4.528;2022-09-13T04:12:37;18.70;54.60
42905;DHT22;28550;51.228;4.528;2022-09-13T04:15:05;18.60;52.90
42905;DHT22;28550;51.228;4.528;2022-09-13T04:20:22;18.70;53.10
42905;DHT22;28550;51.228;4.528;2022-09-13T04:22:51;18.70;52.10
42905;DHT22;28550;51.228;4.528;2022-09-13T04:25:17;18.60;55.50
42905;DHT22;28550;51.228;4.528;2022-09-13T04:27:42;18.60;52.50
42905;DHT22;28550;51.228;4.528;2022-09-13T04:30:08;18.60;53.30
42905;DHT22;28550;51.228;4.528;2022-09-13T04:32:34;18.60;55.50
42905;DHT22;28550;51.228;4.528;2022-09-13T04:37:56;18.60;54.20
42905;DHT22;28550;51.228;4.528;2022-09-13T04:40:23;18.60;54.40
42905;DHT22;28550;51.228;4.528;2022-09-13T04:42:48;18.60;53.30
42905;DHT22;28550;51.228;4.528;2022-09-13T04:45:14;18.60;50.40
42905;DHT22;28550;51.228;4.528;2022-09-13T04:47:40;18.60;50.30
42905;DHT22;28550;51.228;4.528;2022-09-13T04:50:05;18.60;49.20
42905;DHT22;28550;51.228;4.528;2022-09-13T04:52:31;18.60;50.10
42905;DHT22;28550;51.228;4.528;2022-09-13T04:57:56;18.70;51.90
42905;DHT22;28550;51.228;4.528;2022-09-13T05:00:22;18.70;49.60
42905;DHT22;28550;51.228;4.528;2022-09-13T05:02:53;18.60;52.70
42905;DHT22;28550;51.228;4.528;2022-09-13T05:05:18;18.60;56.50
42905;DHT22;28550;51.228;4.528;2022-09-13T05:07:44;18.60;54.00
42905;DHT22;28550;51.228;4.528;2022-09-13T05:10:09;18.60;54.80
42905;DHT22;28550;51.228;4.528;2022-09-13T05:12:35;18.70;54.00
42905;DHT22;28550;51.228;4.528;2022-09-13T05:15:01;18.60;56.80
42905;DHT22;28550;51.228;4.528;2022-09-13T05:17:28;18.60;56.50
42905;DHT22;28550;51.228;4.528;2022-09-13T05:19:56;18.60;58.30
42905;DHT22;28550;51.228;4.528;2022-09-13T05:22:22;18.60;57.90
42905;DHT22;28550;51.228;4.528;2022-09-13T05:24:47;18.60;58.40
42905;DHT22;28550;51.228;4.528;2022-09-13T05:30:12;18.50;63.80
42905;DHT22;28550;51.228;4.528;2022-09-13T05:32:42;18.50;64.20
42905;DHT22;28550;51.228;4.528;2022-09-13T05:35:11;18.50;63.90
42905;DHT22;28550;51.228;4.528;2022-09-13T05:37:42;18.50;62.90
42905;DHT22;28550;51.228;4.528;2022-09-13T05:40:09;18.60;60.90
42905;DHT22;28550;51.228;4.528;2022-09-13T05:42:35;18.60;61.40
42905;DHT22;28550;51.228;4.528;2022-09-13T05:45:13;18.60;59.40
42905;DHT22;28550;51.228;4.528;2022-09-13T05:47:49;18.60;62.10
42905;DHT22;28550;51.228;4.528;2022-09-13T05:50:15;18.60;59.90
42905;DHT22;28550;51.228;4.528;2022-09-13T05:52:45;18.70;55.30
42905;DHT22;28550;51.228;4.528;2022-09-13T05:55:16;18.70;57.80
42905;DHT22;28550;51.228;4.528;2022-09-13T05:57:42;18.70;57.60
42905;DHT22;28550;51.228;4.528;2022-09-13T06:00:10;18.70;56.40
42905;DHT22;28550;51.228;4.528;2022-09-13T06:02:39;18.80;58.10
42905;DHT22;28550;51.228;4.528;2022-09-13T06:05:06;18.90;56.30
42905;DHT22;28550;51.228;4.528;2022-09-13T06:08:13;19.00;54.40
42905;DHT22;28550;51.228;4.528;2022-09-13T06:13:41;19.20;48.30
42905;DHT22;28550;51.228;4.528;2022-09-13T06:16:11;19.20;43.10
42905;DHT22;28550;51.228;4.528;2022-09-13T06:18:38;19.40;42.60
42905;DHT22;28550;51.228;4.528;2022-09-13T06:21:05;19.40;39.40
42905;DHT22;28550;51.228;4.528;2022-09-13T06:23:32;19.40;37.40
42905;DHT22;28550;51.228;4.528;2022-09-13T06:25:59;19.50;33.60
42905;DHT22;28550;51.228;4.528;2022-09-13T06:28:29;19.60;28.90
42905;DHT22;28550;51.228;4.528;2022-09-13T06:31:05;19.70;27.60
42905;DHT22;28550;51.228;4.528;2022-09-13T06:33:31;19.70;26.10
42905;DHT22;28550;51.228;4.528;2022-09-13T06:36:05;19.70;23.40
42905;DHT22;28550;51.228;4.528;2022-09-13T06:38:42;19.80;26.70
42905;DHT22;28550;51.228;4.528;2022-09-13T06:41:09;19.70;31.50
42905;DHT22;28550;51.228;4.528;2022-09-13T06:43:35;19.80;28.80
42905;DHT22;28550;51.228;4.528;2022-09-13T06:46:04;19.90;22.00
42905;DHT22;28550;51.228;4.528;2022-09-13T06:51:38;20.10;20.60
42905;DHT22;28550;51.228;4.528;2022-09-13T06:54:10;20.10;17.10
42905;DHT22;28550;51.228;4.528;2022-09-13T06:56:42;20.20;16.10
42905;DHT22;28550;51.228;4.528;2022-09-13T06:59:09;20.30;14.40
42905;DHT22;28550;51.228;4.528;2022-09-13T07:23:13;21.20;1.00
42905;DHT22;28550;51.228;4.528;2022-09-13T07:25:42;21.50;1.00
42905;DHT22;28550;51.228;4.528;2022-09-13T07:39:00;22.30;1.00
42905;DHT22;28550;51.228;4.528;2022-09-13T07:41:27;22.30;1.00
42905;DHT22;28550;51.228;4.528;2022-09-13T07:49:00;22.80;1.00
42905;DHT22;28550;51.228;4.528;2022-09-13T07:51:30;22.90;1.00
42905;DHT22;28550;51.228;4.528;2022-09-13T07:59:43;23.50;1.00
42905;DHT22;28550;51.228;4.528;2022-09-13T08:07:58;24.10;99.90
42905;DHT22;28550;51.228;4.528;2022-09-13T08:13:26;24.40;1.00
42905;DHT22;28550;51.228;4.528;2022-09-13T08:21:33;24.70;1.00
42905;DHT22;28550;51.228;4.528;2022-09-13T08:29:55;25.30;99.90
42905;DHT22;28550;51.228;4.528;2022-09-13T08:38:20;25.80;99.90
42905;DHT22;28550;51.228;4.528;2022-09-13T08:40:50;26.20;1.00
42905;DHT22;28550;51.228;4.528;2022-09-13T08:57:26;31.20;1.00
42905;DHT22;28550;51.228;4.528;2022-09-13T09:05:17;31.70;99.90
42905;DHT22;28550;51.228;4.528;2022-09-13T09:07:51;31.70;99.90
42905;DHT22;28550;51.228;4.528;2022-09-13T09:15:51;30.30;99.90
42905;DHT22;28550;51.228;4.528;2022-09-13T09:18:19;30.40;99.90
42905;DHT22;28550;51.228;4.528;2022-09-13T09:21:05;30.30;99.90
42905;DHT22;28550;51.228;4.528;2022-09-13T09:23:53;30.70;99.90
42905;DHT22;28550;51.228;4.528;2022-09-13T09:28:46;31.30;99.90
42905;DHT22;28550;51.228;4.528;2022-09-13T09:39:38;31.70;99.90
42905;DHT22;28550;51.228;4.528;2022-09-13T09:42:14;31.60;99.90
42905;DHT22;28550;51.228;4.528;2022-09-13T09:44:42;31.30;99.90
42905;DHT22;28550;51.228;4.528;2022-09-13T09:47:16;31.60;99.90
42905;DHT22;28550;51.228;4.528;2022-09-13T10:01:00;34.70;99.90
42905;DHT22;28550;51.228;4.528;2022-09-13T10:03:27;35.40;99.90
42905;DHT22;28550;51.228;4.528;2022-09-13T10:06:06;35.30;99.90
42905;DHT22;28550;51.228;4.528;2022-09-13T10:08:39;35.30;99.90
42905;DHT22;28550;51.228;4.528;2022-09-13T10:18:43;37.80;99.90
42905;DHT22;28550;51.228;4.528;2022-09-13T10:26:27;39.00;99.90
42905;DHT22;28550;51.228;4.528;2022-09-13T10:39:59;39.70;99.90
42905;DHT22;28550;51.228;4.528;2022-09-13T10:42:26;39.20;99.90
42905;DHT22;28550;51.228;4.528;2022-09-13T10:44:53;38.10;99.90
42905;DHT22;28550;51.228;4.528;2022-09-13T10:52:54;37.80;99.90
42905;DHT22;28550;51.228;4.528;2022-09-13T10:58:19;36.20;99.90
42905;DHT22;28550;51.228;4.528;2022-09-13T11:16:19;32.70;99.90
42905;DHT22;28550;51.228;4.528;2022-09-13T11:32:43;32.30;99.90
42905;DHT22;28550;51.228;4.528;2022-09-13T11:47:06;32.30;99.90
42905;DHT22;28550;51.228;4.528;2022-09-13T11:58:10;34.80;99.90
42905;DHT22;28550;51.228;4.528;2022-09-13T12:05:40;37.20;99.90
42905;DHT22;28550;51.228;4.528;2022-09-13T12:08:15;37.60;99.90
42905;DHT22;28550;51.228;4.528;2022-09-13T12:10:45;37.30;99.90
42905;DHT22;28550;51.228;4.528;2022-09-13T12:15:54;35.50;99.90
42905;DHT22;28550;51.228;4.528;2022-09-13T12:21:49;35.90;99.90
42905;DHT22;28550;51.228;4.528;2022-09-13T12:27:03;36.90;99.90
42905;DHT22;28550;51.228;4.528;2022-09-13T12:29:53;36.80;99.90
42905;DHT22;28550;51.228;4.528;2022-09-13T12:32:19;36.30;99.90
42905;DHT22;28550;51.228;4.528;2022-09-13T12:35:01;36.50;99.90
42905;DHT22;28550;51.228;4.528;2022-09-13T12:39:59;36.80;99.90
42905;DHT22;28550;51.228;4.528;2022-09-13T12:45:03;37.70;99.90
42905;DHT22;28550;51.228;4.528;2022-09-13T13:03:11;33.50;99.90
42905;DHT22;28550;51.228;4.528;2022-09-13T13:19:31;30.90;99.90
42905;DHT22;28550;51.228;4.528;2022-09-13T13:24:44;29.90;99.90
42905;DHT22;28550;51.228;4.528;2022-09-13T13:35:45;28.90;99.90
42905;DHT22;28550;51.228;4.528;2022-09-13T13:38:35;28.70;99.90
42905;DHT22;28550;51.228;4.528;2022-09-13T13:43:47;28.20;99.90
42905;DHT22;28550;51.228;4.528;2022-09-13T13:49:57;27.80;99.90
42905;DHT22;28550;51.228;4.528;2022-09-13T13:57:26;26.90;99.90
42905;DHT22;28550;51.228;4.528;2022-09-13T14:11:13;25.80;1.00
42905;DHT22;28550;51.228;4.528;2022-09-13T14:22:48;25.30;1.00
42905;DHT22;28550;51.228;4.528;2022-09-13T14:30:41;25.10;1.00
42905;DHT22;28550;51.228;4.528;2022-09-13T14:33:15;24.90;1.00
42905;DHT22;28550;51.228;4.528;2022-09-13T14:38:57;24.50;1.00
42905;DHT22;28550;51.228;4.528;2022-09-13T14:41:41;24.30;7.80
42905;DHT22;28550;51.228;4.528;2022-09-13T14:53:06;24.20;23.40
42905;DHT22;28550;51.228;4.528;2022-09-13T14:55:36;23.90;23.40
42905;DHT22;28550;51.228;4.528;2022-09-13T15:00:57;23.70;45.20
42905;DHT22;28550;51.228;4.528;2022-09-13T15:03:33;23.70;46.30
42905;DHT22;28550;51.228;4.528;2022-09-13T15:06:00;23.70;36.30
42905;DHT22;28550;51.228;4.528;2022-09-13T15:08:43;23.60;42.50
42905;DHT22;28550;51.228;4.528;2022-09-13T15:11:26;23.50;42.20
42905;DHT22;28550;51.228;4.528;2022-09-13T15:14:00;23.60;37.20
42905;DHT22;28550;51.228;4.528;2022-09-13T15:16:35;23.40;49.40
42905;DHT22;28550;51.228;4.528;2022-09-13T15:21:44;23.40;46.70
42905;DHT22;28550;51.228;4.528;2022-09-13T15:24:17;23.40;45.90
42905;DHT22;28550;51.228;4.528;2022-09-13T15:26:47;23.30;48.30
42905;DHT22;28550;51.228;4.528;2022-09-13T15:29:18;23.20;56.60
42905;DHT22;28550;51.228;4.528;2022-09-13T15:31:46;23.30;55.70
42905;DHT22;28550;51.228;4.528;2022-09-13T15:34:22;23.10;58.90
42905;DHT22;28550;51.228;4.528;2022-09-13T15:39:47;23.30;66.30
42905;DHT22;28550;51.228;4.528;2022-09-13T15:42:15;23.30;58.40
42905;DHT22;28550;51.228;4.528;2022-09-13T15:44:40;23.20;60.80
42905;DHT22;28550;51.228;4.528;2022-09-13T15:49:55;23.10;60.60
42905;DHT22;28550;51.228;4.528;2022-09-13T15:52:20;23.10;52.90
42905;DHT22;28550;51.228;4.528;2022-09-13T15:54:48;23.00;56.40
42905;DHT22;28550;51.228;4.528;2022-09-13T15:59:39;22.90;58.90
42905;DHT22;28550;51.228;4.528;2022-09-13T16:02:22;22.80;61.90
42905;DHT22;28550;51.228;4.528;2022-09-13T16:04:49;22.70;68.30
42905;DHT22;28550;51.228;4.528;2022-09-13T16:07:15;22.80;69.20
42905;DHT22;28550;51.228;4.528;2022-09-13T16:09:41;22.80;65.80
42905;DHT22;28550;51.228;4.528;2022-09-13T16:12:06;22.80;65.00
42905;DHT22;28550;51.228;4.528;2022-09-13T16:14:41;22.70;66.40
42905;DHT22;28550;51.228;4.528;2022-09-13T16:17:31;22.70;65.50
42905;DHT22;28550;51.228;4.528;2022-09-13T16:20:14;22.80;68.00
42905;DHT22;28550;51.228;4.528;2022-09-13T16:22:40;22.80;71.30
42905;DHT22;28550;51.228;4.528;2022-09-13T16:25:06;22.80;68.80
42905;DHT22;28550;51.228;4.528;2022-09-13T16:27:31;22.90;72.40
42905;DHT22;28550;51.228;4.528;2022-09-13T16:29:57;22.80;70.90
42905;DHT22;28550;51.228;4.528;2022-09-13T16:32:26;22.70;79.30
42905;DHT22;28550;51.228;4.528;2022-09-13T16:34:52;22.50;82.90
42905;DHT22;28550;51.228;4.528;2022-09-13T16:37:18;22.50;80.20
42905;DHT22;28550;51.228;4.528;2022-09-13T16:39:44;22.40;82.40
42905;DHT22;28550;51.228;4.528;2022-09-13T16:42:10;22.40;83.30
42905;DHT22;28550;51.228;4.528;2022-09-13T16:50:40;22.40;81.10
42905;DHT22;28550;51.228;4.528;2022-09-13T16:53:07;22.40;80.10
42905;DHT22;28550;51.228;4.528;2022-09-13T16:55:36;22.40;72.80
42905;DHT22;28550;51.228;4.528;2022-09-13T16:58:01;22.50;62.20
42905;DHT22;28550;51.228;4.528;2022-09-13T17:00:27;22.20;56.80
42905;DHT22;28550;51.228;4.528;2022-09-13T17:02:54;22.10;56.70
42905;DHT22;28550;51.228;4.528;2022-09-13T17:05:26;22.00;59.60
42905;DHT22;28550;51.228;4.528;2022-09-13T17:10:23;21.90;66.40
42905;DHT22;28550;51.228;4.528;2022-09-13T17:12:51;21.80;66.30
42905;DHT22;28550;51.228;4.528;2022-09-13T17:15:21;21.80;64.80
42905;DHT22;28550;51.228;4.528;2022-09-13T17:17:46;21.80;63.30
42905;DHT22;28550;51.228;4.528;2022-09-13T17:20:15;21.80;59.00
42905;DHT22;28550;51.228;4.528;2022-09-13T17:22:42;21.70;62.90
42905;DHT22;28550;51.228;4.528;2022-09-13T17:25:08;21.60;67.00
42905;DHT22;28550;51.228;4.528;2022-09-13T17:27:45;21.50;69.00
42905;DHT22;28550;51.228;4.528;2022-09-13T17:30:11;21.30;71.10
42905;DHT22;28550;51.228;4.528;2022-09-13T17:32:37;21.30;76.50
42905;DHT22;28550;51.228;4.528;2022-09-13T17:35:03;21.40;67.90
42905;DHT22;28550;51.228;4.528;2022-09-13T17:37:28;21.40;68.40
42905;DHT22;28550;51.228;4.528;2022-09-13T17:39:54;21.30;67.40
42905;DHT22;28550;51.228;4.528;2022-09-13T17:42:20;21.20;67.50
42905;DHT22;28550;51.228;4.528;2022-09-13T17:44:45;21.20;70.70
42905;DHT22;28550;51.228;4.528;2022-09-13T17:47:13;21.10;72.80
42905;DHT22;28550;51.228;4.528;2022-09-13T17:49:39;21.10;74.00
42905;DHT22;28550;51.228;4.528;2022-09-13T17:52:05;21.10;76.00
42905;DHT22;28550;51.228;4.528;2022-09-13T17:57:38;21.30;75.20
42905;DHT22;28550;51.228;4.528;2022-09-13T18:05:32;21.00;80.90
42905;DHT22;28550;51.228;4.528;2022-09-13T18:07:58;21.00;77.10
42905;DHT22;28550;51.228;4.528;2022-09-13T18:10:23;20.80;81.80
42905;DHT22;28550;51.228;4.528;2022-09-13T18:12:50;20.80;82.20
42905;DHT22;28550;51.228;4.528;2022-09-13T18:15:18;20.70;81.20
42905;DHT22;28550;51.228;4.528;2022-09-13T18:17:53;20.70;82.70
42905;DHT22;28550;51.228;4.528;2022-09-13T18:20:19;20.50;88.90
42905;DHT22;28550;51.228;4.528;2022-09-13T18:22:44;20.30;87.20
42905;DHT22;28550;51.228;4.528;2022-09-13T18:25:10;20.20;88.20
42905;DHT22;28550;51.228;4.528;2022-09-13T18:27:37;20.00;90.50
42905;DHT22;28550;51.228;4.528;2022-09-13T18:30:05;20.10;91.30
42905;DHT22;28550;51.228;4.528;2022-09-13T18:32:31;20.00;91.10
42905;DHT22;28550;51.228;4.528;2022-09-13T18:34:57;20.00;90.60
42905;DHT22;28550;51.228;4.528;2022-09-13T18:37:23;20.00;91.60
42905;DHT22;28550;51.228;4.528;2022-09-13T18:39:55;20.00;91.80
42905;DHT22;28550;51.228;4.528;2022-09-13T18:42:21;20.10;91.00
42905;DHT22;28550;51.228;4.528;2022-09-13T18:44:48;20.10;90.50
42905;DHT22;28550;51.228;4.528;2022-09-13T18:47:17;20.10;91.30
42905;DHT22;28550;51.228;4.528;2022-09-13T18:49:43;20.10;92.10
42905;DHT22;28550;51.228;4.528;2022-09-13T18:52:09;20.10;92.20
42905;DHT22;28550;51.228;4.528;2022-09-13T18:55:07;20.00;91.80
42905;DHT22;28550;51.228;4.528;2022-09-13T18:57:32;19.80;92.10
42905;DHT22;28550;51.228;4.528;2022-09-13T18:59:58;19.70;90.80
42905;DHT22;28550;51.228;4.528;2022-09-13T19:02:23;19.70;91.30
42905;DHT22;28550;51.228;4.528;2022-09-13T19:04:49;19.50;92.80
42905;DHT22;28550;51.228;4.528;2022-09-13T19:07:15;19.40;93.70
42905;DHT22;28550;51.228;4.528;2022-09-13T19:09:52;19.30;94.10
42905;DHT22;28550;51.228;4.528;2022-09-13T19:12:31;19.30;95.60
42905;DHT22;28550;51.228;4.528;2022-09-13T19:14:57;19.20;95.90
42905;DHT22;28550;51.228;4.528;2022-09-13T19:17:22;19.30;94.50
42905;DHT22;28550;51.228;4.528;2022-09-13T19:19:48;19.40;95.00
42905;DHT22;28550;51.228;4.528;2022-09-13T19:22:13;19.40;94.70
42905;DHT22;28550;51.228;4.528;2022-09-13T19:24:42;19.50;93.90
42905;DHT22;28550;51.228;4.528;2022-09-13T19:27:10;19.50;93.00
42905;DHT22;28550;51.228;4.528;2022-09-13T19:32:23;19.40;92.80
42905;DHT22;28550;51.228;4.528;2022-09-13T19:34:49;19.50;91.40
42905;DHT22;28550;51.228;4.528;2022-09-13T19:39:59;19.40;81.70
42905;DHT22;28550;51.228;4.528;2022-09-13T19:42:24;19.20;83.00
42905;DHT22;28550;51.228;4.528;2022-09-13T19:44:50;19.20;80.10
42905;DHT22;28550;51.228;4.528;2022-09-13T19:47:36;19.30;82.60
42905;DHT22;28550;51.228;4.528;2022-09-13T19:50:01;19.40;78.50
42905;DHT22;28550;51.228;4.528;2022-09-13T19:55:14;19.20;75.50
42905;DHT22;28550;51.228;4.528;2022-09-13T19:57:40;19.10;73.20
42905;DHT22;28550;51.228;4.528;2022-09-13T20:00:11;18.90;77.80
42905;DHT22;28550;51.228;4.528;2022-09-13T20:05:33;18.50;84.50
42905;DHT22;28550;51.228;4.528;2022-09-13T20:08:11;18.40;89.20
42905;DHT22;28550;51.228;4.528;2022-09-13T20:10:36;18.30;90.20
42905;DHT22;28550;51.228;4.528;2022-09-13T20:13:02;18.20;90.80
42905;DHT22;28550;51.228;4.528;2022-09-13T20:15:31;18.10;91.90
42905;DHT22;28550;51.228;4.528;2022-09-13T20:23:02;17.90;94.80
42905;DHT22;28550;51.228;4.528;2022-09-13T20:27:56;17.80;94.80
42905;DHT22;28550;51.228;4.528;2022-09-13T20:30:24;17.70;95.20
42905;DHT22;28550;51.228;4.528;2022-09-13T20:32:54;17.80;95.40
42905;DHT22;28550;51.228;4.528;2022-09-13T20:35:20;17.70;96.10
42905;DHT22;28550;51.228;4.528;2022-09-13T20:43:16;17.80;95.40
42905;DHT22;28550;51.228;4.528;2022-09-13T20:45:42;17.80;94.10
42905;DHT22;28550;51.228;4.528;2022-09-13T20:48:07;17.80;94.00
42905;DHT22;28550;51.228;4.528;2022-09-13T20:50:33;17.90;93.70
42905;DHT22;28550;51.228;4.528;2022-09-13T20:52:59;17.80;94.00
42905;DHT22;28550;51.228;4.528;2022-09-13T20:55:25;17.80;94.60
42905;DHT22;28550;51.228;4.528;2022-09-13T20:57:54;17.80;94.80
42905;DHT22;28550;51.228;4.528;2022-09-13T21:02:47;17.90;96.00
42905;DHT22;28550;51.228;4.528;2022-09-13T21:05:13;18.00;95.10
42905;DHT22;28550;51.228;4.528;2022-09-13T21:07:54;18.10;94.30
42905;DHT22;28550;51.228;4.528;2022-09-13T21:10:38;18.00;95.50
42905;DHT22;28550;51.228;4.528;2022-09-13T21:13:10;18.00;93.80
42905;DHT22;28550;51.228;4.528;2022-09-13T21:15:45;18.00;95.20
42905;DHT22;28550;51.228;4.528;2022-09-13T21:18:17;17.90;94.50
42905;DHT22;28550;51.228;4.528;2022-09-13T21:20:52;17.90;95.70
42905;DHT22;28550;51.228;4.528;2022-09-13T21:23:23;17.90;94.90
42905;DHT22;28550;51.228;4.528;2022-09-13T21:26:05;18.00;93.40
42905;DHT22;28550;51.228;4.528;2022-09-13T21:28:40;17.90;95.40
42905;DHT22;28550;51.228;4.528;2022-09-13T21:31:09;17.80;95.70
42905;DHT22;28550;51.228;4.528;2022-09-13T21:33:35;17.70;96.50
42905;DHT22;28550;51.228;4.528;2022-09-13T21:36:13;17.60;96.30
42905;DHT22;28550;51.228;4.528;2022-09-13T21:41:13;17.60;97.60
42905;DHT22;28550;51.228;4.528;2022-09-13T21:43:39;17.70;97.80
42905;DHT22;28550;51.228;4.528;2022-09-13T21:46:06;17.90;96.30
42905;DHT22;28550;51.228;4.528;2022-09-13T21:48:32;17.90;96.50
42905;DHT22;28550;51.228;4.528;2022-09-13T21:51:02;17.80;96.00
42905;DHT22;28550;51.228;4.528;2022-09-13T21:53:37;17.80;96.60
42905;DHT22;28550;51.228;4.528;2022-09-13T21:56:07;17.70;96.70
42905;DHT22;28550;51.228;4.528;2022-09-13T21:58:34;17.60;97.50
42905;DHT22;28550;51.228;4.528;2022-09-13T22:01:05;17.60;97.40
42905;DHT22;28550;51.228;4.528;2022-09-13T22:03:35;17.50;98.00
42905;DHT22;28550;51.228;4.528;2022-09-13T22:06:10;17.60;98.10
42905;DHT22;28550;51.228;4.528;2022-09-13T22:08:38;17.70;98.00
42905;DHT22;28550;51.228;4.528;2022-09-13T22:11:04;17.70;97.50
42905;DHT22;28550;51.228;4.528;2022-09-13T22:13:51;17.70;97.00
42905;DHT22;28550;51.228;4.528;2022-09-13T22:16:24;17.60;96.90
42905;DHT22;28550;51.228;4.528;2022-09-13T22:18:52;17.60;98.20
42905;DHT22;28550;51.228;4.528;2022-09-13T22:21:19;17.60;98.20
42905;DHT22;28550;51.228;4.528;2022-09-13T22:23:45;17.60;97.60
42905;DHT22;28550;51.228;4.528;2022-09-13T22:26:23;17.70;96.30
42905;DHT22;28550;51.228;4.528;2022-09-13T22:28:49;17.60;97.00
42905;DHT22;28550;51.228;4.528;2022-09-13T22:31:17;17.70;96.30
42905;DHT22;28550;51.228;4.528;2022-09-13T22:33:43;17.70;96.70
42905;DHT22;28550;51.228;4.528;2022-09-13T22:36:09;17.60;95.90
42905;DHT22;28550;51.228;4.528;2022-09-13T22:38:36;17.50;96.90
42905;DHT22;28550;51.228;4.528;2022-09-13T22:41:04;17.50;97.70
42905;DHT22;28550;51.228;4.528;2022-09-13T22:43:30;17.50;97.60
42905;DHT22;28550;51.228;4.528;2022-09-13T22:46:00;17.60;97.20
42905;DHT22;28550;51.228;4.528;2022-09-13T22:48:26;17.60;97.20
42905;DHT22;28550;51.228;4.528;2022-09-13T22:50:52;17.60;96.30
42905;DHT22;28550;51.228;4.528;2022-09-13T22:53:18;17.50;96.60
42905;DHT22;28550;51.228;4.528;2022-09-13T22:55:44;17.50;97.00
42905;DHT22;28550;51.228;4.528;2022-09-13T22:58:10;17.50;96.40
42905;DHT22;28550;51.228;4.528;2022-09-13T23:00:36;17.50;96.80
42905;DHT22;28550;51.228;4.528;2022-09-13T23:03:02;17.60;95.50
42905;DHT22;28550;51.228;4.528;2022-09-13T23:05:29;17.60;95.30
42905;DHT22;28550;51.228;4.528;2022-09-13T23:07:54;17.60;96.10
42905;DHT22;28550;51.228;4.528;2022-09-13T23:10:20;17.60;94.90
42905;DHT22;28550;51.228;4.528;2022-09-13T23:12:45;17.50;95.00